sensor_id;sensor_type;location;lat;lon;timestamp;temperature;humidity
20998;DHT22;10657;51.276;6.390;2023-04-15T00:01:05;9.20;99.90
20998;DHT22;10657;51.276;6.390;2023-04-15T00:03:31;9.20;99.90
20998;DHT22;10657;51.276;6.390;2023-04-15T00:06:00;9.30;99.90
20998;DHT22;10657;51.276;6.390;2023-04-15T00:08:27;9.30;99.90
20998;DHT22;10657;51.276;6.390;2023-04-15T00:10:55;9.20;99.90
20998;DHT22;10657;51.276;6.390;2023-04-15T00:13:22;9.20;99.90
20998;DHT22;10657;51.276;6.390;2023-04-15T00:15:49;9.10;99.90
20998;DHT22;10657;51.276;6.390;2023-04-15T00:18:15;9.20;99.90
20998;DHT22;10657;51.276;6.390;2023-04-15T00:20:42;9.20;99.90
20998;DHT22;10657;51.276;6.390;2023-04-15T00:23:09;9.10;99.90
20998;DHT22;10657;51.276;6.390;2023-04-15T00:25:35;9.10;99.90
20998;DHT22;10657;51.276;6.390;2023-04-15T00:28:02;9.00;99.90
20998;DHT22;10657;51.276;6.390;2023-04-15T00:30:29;8.90;99.90
20998;DHT22;10657;51.276;6.390;2023-04-15T00:32:56;8.80;99.90
20998;DHT22;10657;51.276;6.390;2023-04-15T00:35:23;8.80;99.90
20998;DHT22;10657;51.276;6.390;2023-04-15T00:37:50;8.70;99.90
20998;DHT22;10657;51.276;6.390;2023-04-15T00:40:18;8.50;99.90
20998;DHT22;10657;51.276;6.390;2023-04-15T00:42:46;8.60;99.90
20998;DHT22;10657;51.276;6.390;2023-04-15T00:45:13;8.60;99.90
20998;DHT22;10657;51.276;6.390;2023-04-15T00:47:42;8.80;99.90
20998;DHT22;10657;51.276;6.390;2023-04-15T00:50:10;8.80;99.90
20998;DHT22;10657;51.276;6.390;2023-04-15T00:52:37;8.70;99.90
20998;DHT22;10657;51.276;6.390;2023-04-15T00:55:05;8.90;99.90
20998;DHT22;10657;51.276;6.390;2023-04-15T00:57:32;8.80;99.90
20998;DHT22;10657;51.276;6.390;2023-04-15T00:59:59;8.80;99.90
20998;DHT22;10657;51.276;6.390;2023-04-15T01:02:26;8.70;99.90
20998;DHT22;10657;51.276;6.390;2023-04-15T01:04:53;8.70;99.90
20998;DHT22;10657;51.276;6.390;2023-04-15T01:07:21;8.80;99.90
20998;DHT22;10657;51.276;6.390;2023-04-15T01:09:48;8.70;99.90
20998;DHT22;10657;51.276;6.390;2023-04-15T01:12:18;8.70;99.90
20998;DHT22;10657;51.276;6.390;2023-04-15T01:14:45;8.70;99.90
20998;DHT22;10657;51.276;6.390;2023-04-15T01:17:12;8.70;99.90
20998;DHT22;10657;51.276;6.390;2023-04-15T01:19:39;8.60;99.90
20998;DHT22;10657;51.276;6.390;2023-04-15T01:22:06;8.50;99.90
20998;DHT22;10657;51.276;6.390;2023-04-15T01:24:34;8.50;99.90
20998;DHT22;10657;51.276;6.390;2023-04-15T01:27:03;8.50;99.90
20998;DHT22;10657;51.276;6.390;2023-04-15T01:29:32;8.50;99.90
20998;DHT22;10657;51.276;6.390;2023-04-15T01:31:58;8.40;99.90
20998;DHT22;10657;51.276;6.390;2023-04-15T01:34:25;8.30;99.90
20998;DHT22;10657;51.276;6.390;2023-04-15T01:36:52;8.20;99.90
20998;DHT22;10657;51.276;6.390;2023-04-15T01:39:19;8.20;99.90
20998;DHT22;10657;51.276;6.390;2023-04-15T01:41:45;8.30;99.90
20998;DHT22;10657;51.276;6.390;2023-04-15T01:44:12;8.20;99.90
20998;DHT22;10657;51.276;6.390;2023-04-15T01:46:42;8.20;99.90
20998;DHT22;10657;51.276;6.390;2023-04-15T01:49:09;8.10;99.90
20998;DHT22;10657;51.276;6.390;2023-04-15T01:51:36;8.20;99.90
20998;DHT22;10657;51.276;6.390;2023-04-15T01:54:02;8.20;99.90
20998;DHT22;10657;51.276;6.390;2023-04-15T01:56:29;8.20;99.90
20998;DHT22;10657;51.276;6.390;2023-04-15T01:58:56;8.30;99.90
20998;DHT22;10657;51.276;6.390;2023-04-15T02:01:22;8.30;99.90
20998;DHT22;10657;51.276;6.390;2023-04-15T02:03:49;8.20;99.90
20998;DHT22;10657;51.276;6.390;2023-04-15T02:06:16;8.20;99.90
20998;DHT22;10657;51.276;6.390;2023-04-15T02:08:43;8.00;99.90
20998;DHT22;10657;51.276;6.390;2023-04-15T02:11:10;8.20;99.90
20998;DHT22;10657;51.276;6.390;2023-04-15T02:13:37;8.10;99.90
20998;DHT22;10657;51.276;6.390;2023-04-15T02:16:04;8.10;99.90
20998;DHT22;10657;51.276;6.390;2023-04-15T02:18:40;8.00;99.90
20998;DHT22;10657;51.276;6.390;2023-04-15T02:21:07;7.80;99.90
20998;DHT22;10657;51.276;6.390;2023-04-15T02:23:34;7.90;99.90
20998;DHT22;10657;51.276;6.390;2023-04-15T02:26:00;7.60;99.90
20998;DHT22;10657;51.276;6.390;2023-04-15T02:28:27;7.70;99.90
20998;DHT22;10657;51.276;6.390;2023-04-15T02:30:54;7.80;99.90
20998;DHT22;10657;51.276;6.390;2023-04-15T02:33:22;7.60;99.90
20998;DHT22;10657;51.276;6.390;2023-04-15T02:35:50;7.50;99.90
20998;DHT22;10657;51.276;6.390;2023-04-15T02:38:16;7.50;99.90
20998;DHT22;10657;51.276;6.390;2023-04-15T02:40:43;7.60;99.90
20998;DHT22;10657;51.276;6.390;2023-04-15T02:43:10;7.60;99.90
20998;DHT22;10657;51.276;6.390;2023-04-15T02:45:36;7.50;99.90
20998;DHT22;10657;51.276;6.390;2023-04-15T02:48:03;7.50;99.90
20998;DHT22;10657;51.276;6.390;2023-04-15T02:50:32;7.30;99.90
20998;DHT22;10657;51.276;6.390;2023-04-15T02:52:59;7.40;99.90
20998;DHT22;10657;51.276;6.390;2023-04-15T02:55:27;7.30;99.90
20998;DHT22;10657;51.276;6.390;2023-04-15T02:57:54;7.50;99.90
20998;DHT22;10657;51.276;6.390;2023-04-15T03:00:21;7.50;99.90
20998;DHT22;10657;51.276;6.390;2023-04-15T03:02:47;7.60;99.90
20998;DHT22;10657;51.276;6.390;2023-04-15T03:05:17;7.50;99.90
20998;DHT22;10657;51.276;6.390;2023-04-15T03:07:44;7.50;99.90
20998;DHT22;10657;51.276;6.390;2023-04-15T03:10:11;7.50;99.90
20998;DHT22;10657;51.276;6.390;2023-04-15T03:12:38;7.40;99.90
20998;DHT22;10657;51.276;6.390;2023-04-15T03:15:05;7.20;99.90
20998;DHT22;10657;51.276;6.390;2023-04-15T03:17:32;7.10;99.90
20998;DHT22;10657;51.276;6.390;2023-04-15T03:20:01;7.10;99.90
20998;DHT22;10657;51.276;6.390;2023-04-15T03:22:28;7.20;99.90
20998;DHT22;10657;51.276;6.390;2023-04-15T03:24:55;7.10;99.90
20998;DHT22;10657;51.276;6.390;2023-04-15T03:27:21;7.20;99.90
20998;DHT22;10657;51.276;6.390;2023-04-15T03:29:48;7.20;99.90
20998;DHT22;10657;51.276;6.390;2023-04-15T03:32:15;7.10;99.90
20998;DHT22;10657;51.276;6.390;2023-04-15T03:34:42;6.90;99.90
20998;DHT22;10657;51.276;6.390;2023-04-15T03:37:09;7.10;99.90
20998;DHT22;10657;51.276;6.390;2023-04-15T03:39:35;7.10;99.90
20998;DHT22;10657;51.276;6.390;2023-04-15T03:42:02;7.10;99.90
20998;DHT22;10657;51.276;6.390;2023-04-15T03:44:29;7.10;99.90
20998;DHT22;10657;51.276;6.390;2023-04-15T03:46:55;7.10;99.90
20998;DHT22;10657;51.276;6.390;2023-04-15T03:49:22;7.00;99.90
20998;DHT22;10657;51.276;6.390;2023-04-15T03:51:49;7.10;99.90
20998;DHT22;10657;51.276;6.390;2023-04-15T03:54:16;7.10;99.90
20998;DHT22;10657;51.276;6.390;2023-04-15T03:56:43;7.20;99.90
20998;DHT22;10657;51.276;6.390;2023-04-15T03:59:09;7.20;99.90
20998;DHT22;10657;51.276;6.390;2023-04-15T04:01:36;7.20;99.90
20998;DHT22;10657;51.276;6.390;2023-04-15T04:04:03;7.10;99.90
20998;DHT22;10657;51.276;6.390;2023-04-15T04:06:30;7.10;99.90
20998;DHT22;10657;51.276;6.390;2023-04-15T04:08:57;7.00;99.90
20998;DHT22;10657;51.276;6.390;2023-04-15T04:11:23;7.00;99.90
20998;DHT22;10657;51.276;6.390;2023-04-15T04:13:50;7.00;99.90
20998;DHT22;10657;51.276;6.390;2023-04-15T04:16:16;7.10;99.90
20998;DHT22;10657;51.276;6.390;2023-04-15T04:18:43;7.10;99.90
20998;DHT22;10657;51.276;6.390;2023-04-15T04:21:10;7.10;99.90
20998;DHT22;10657;51.276;6.390;2023-04-15T04:23:37;7.10;99.90
20998;DHT22;10657;51.276;6.390;2023-04-15T04:26:04;7.00;99.90
20998;DHT22;10657;51.276;6.390;2023-04-15T04:28:30;7.00;99.90
20998;DHT22;10657;51.276;6.390;2023-04-15T04:30:57;7.00;99.90
20998;DHT22;10657;51.276;6.390;2023-04-15T04:33:24;7.00;99.90
20998;DHT22;10657;51.276;6.390;2023-04-15T04:35:51;7.10;99.90
20998;DHT22;10657;51.276;6.390;2023-04-15T04:38:17;7.00;99.90
20998;DHT22;10657;51.276;6.390;2023-04-15T04:40:44;7.10;99.90
20998;DHT22;10657;51.276;6.390;2023-04-15T04:43:11;7.10;99.90
20998;DHT22;10657;51.276;6.390;2023-04-15T04:45:38;7.10;99.90
20998;DHT22;10657;51.276;6.390;2023-04-15T04:48:05;7.00;99.90
20998;DHT22;10657;51.276;6.390;2023-04-15T04:50:34;6.90;99.90
20998;DHT22;10657;51.276;6.390;2023-04-15T04:53:01;7.00;99.90
20998;DHT22;10657;51.276;6.390;2023-04-15T04:55:28;7.20;99.90
20998;DHT22;10657;51.276;6.390;2023-04-15T04:57:54;7.20;99.90
20998;DHT22;10657;51.276;6.390;2023-04-15T05:00:21;7.20;99.90
20998;DHT22;10657;51.276;6.390;2023-04-15T05:02:48;7.20;99.90
20998;DHT22;10657;51.276;6.390;2023-04-15T05:05:15;7.20;99.90
20998;DHT22;10657;51.276;6.390;2023-04-15T05:07:41;7.10;99.90
20998;DHT22;10657;51.276;6.390;2023-04-15T05:10:08;7.00;99.90
20998;DHT22;10657;51.276;6.390;2023-04-15T05:12:35;7.10;99.90
20998;DHT22;10657;51.276;6.390;2023-04-15T05:15:05;7.10;99.90
20998;DHT22;10657;51.276;6.390;2023-04-15T05:17:31;7.20;99.90
20998;DHT22;10657;51.276;6.390;2023-04-15T05:20:01;7.20;99.90
20998;DHT22;10657;51.276;6.390;2023-04-15T05:22:28;7.10;99.90
20998;DHT22;10657;51.276;6.390;2023-04-15T05:24:55;7.10;99.90
20998;DHT22;10657;51.276;6.390;2023-04-15T05:27:21;7.20;99.90
20998;DHT22;10657;51.276;6.390;2023-04-15T05:29:49;7.30;99.90
20998;DHT22;10657;51.276;6.390;2023-04-15T05:32:16;7.30;99.90
20998;DHT22;10657;51.276;6.390;2023-04-15T05:34:42;7.40;99.90
20998;DHT22;10657;51.276;6.390;2023-04-15T05:37:09;7.40;99.90
20998;DHT22;10657;51.276;6.390;2023-04-15T05:39:36;7.50;99.90
20998;DHT22;10657;51.276;6.390;2023-04-15T05:42:02;7.50;99.90
20998;DHT22;10657;51.276;6.390;2023-04-15T05:44:31;7.60;99.90
20998;DHT22;10657;51.276;6.390;2023-04-15T05:46:57;7.70;99.90
20998;DHT22;10657;51.276;6.390;2023-04-15T05:49:24;7.70;99.90
20998;DHT22;10657;51.276;6.390;2023-04-15T05:51:51;7.80;99.90
20998;DHT22;10657;51.276;6.390;2023-04-15T05:54:18;7.90;99.90
20998;DHT22;10657;51.276;6.390;2023-04-15T05:56:45;7.80;99.90
20998;DHT22;10657;51.276;6.390;2023-04-15T05:59:12;7.80;99.90
20998;DHT22;10657;51.276;6.390;2023-04-15T06:01:39;7.80;99.90
20998;DHT22;10657;51.276;6.390;2023-04-15T06:04:06;8.00;99.90
20998;DHT22;10657;51.276;6.390;2023-04-15T06:06:32;8.10;99.90
20998;DHT22;10657;51.276;6.390;2023-04-15T06:09:00;8.10;99.90
20998;DHT22;10657;51.276;6.390;2023-04-15T06:11:27;8.10;99.90
20998;DHT22;10657;51.276;6.390;2023-04-15T06:13:53;8.10;99.90
20998;DHT22;10657;51.276;6.390;2023-04-15T06:16:20;8.10;99.90
20998;DHT22;10657;51.276;6.390;2023-04-15T06:18:47;8.20;99.90
20998;DHT22;10657;51.276;6.390;2023-04-15T06:21:14;8.20;99.90
20998;DHT22;10657;51.276;6.390;2023-04-15T06:23:41;8.20;99.90
20998;DHT22;10657;51.276;6.390;2023-04-15T06:26:08;8.40;99.90
20998;DHT22;10657;51.276;6.390;2023-04-15T06:28:34;8.50;99.90
20998;DHT22;10657;51.276;6.390;2023-04-15T06:31:01;8.60;99.90
20998;DHT22;10657;51.276;6.390;2023-04-15T06:33:28;8.60;99.90
20998;DHT22;10657;51.276;6.390;2023-04-15T06:35:54;8.70;99.90
20998;DHT22;10657;51.276;6.390;2023-04-15T06:38:21;8.70;99.90
20998;DHT22;10657;51.276;6.390;2023-04-15T06:40:50;8.70;99.90
20998;DHT22;10657;51.276;6.390;2023-04-15T06:43:17;8.70;99.90
20998;DHT22;10657;51.276;6.390;2023-04-15T06:45:45;8.80;99.90
20998;DHT22;10657;51.276;6.390;2023-04-15T06:48:12;9.10;99.90
20998;DHT22;10657;51.276;6.390;2023-04-15T06:50:39;9.00;99.90
20998;DHT22;10657;51.276;6.390;2023-04-15T06:53:06;9.40;99.90
20998;DHT22;10657;51.276;6.390;2023-04-15T06:55:34;9.40;99.90
20998;DHT22;10657;51.276;6.390;2023-04-15T06:58:01;9.30;99.90
20998;DHT22;10657;51.276;6.390;2023-04-15T07:00:27;9.40;99.90
20998;DHT22;10657;51.276;6.390;2023-04-15T07:02:54;9.50;99.90
20998;DHT22;10657;51.276;6.390;2023-04-15T07:05:21;9.30;99.90
20998;DHT22;10657;51.276;6.390;2023-04-15T07:07:48;9.20;99.90
20998;DHT22;10657;51.276;6.390;2023-04-15T07:10:15;9.60;99.90
20998;DHT22;10657;51.276;6.390;2023-04-15T07:12:42;10.00;99.90
20998;DHT22;10657;51.276;6.390;2023-04-15T07:15:09;10.00;99.90
20998;DHT22;10657;51.276;6.390;2023-04-15T07:17:36;10.20;99.90
20998;DHT22;10657;51.276;6.390;2023-04-15T07:20:03;10.30;99.90
20998;DHT22;10657;51.276;6.390;2023-04-15T07:22:30;9.80;99.90
20998;DHT22;10657;51.276;6.390;2023-04-15T07:24:57;9.70;99.90
20998;DHT22;10657;51.276;6.390;2023-04-15T07:27:23;9.70;99.90
20998;DHT22;10657;51.276;6.390;2023-04-15T07:29:50;9.70;99.90
20998;DHT22;10657;51.276;6.390;2023-04-15T07:32:18;9.80;99.90
20998;DHT22;10657;51.276;6.390;2023-04-15T07:34:45;10.30;99.90
20998;DHT22;10657;51.276;6.390;2023-04-15T07:37:11;10.10;99.90
20998;DHT22;10657;51.276;6.390;2023-04-15T07:39:39;10.00;99.90
20998;DHT22;10657;51.276;6.390;2023-04-15T07:42:05;10.00;99.90
20998;DHT22;10657;51.276;6.390;2023-04-15T07:44:32;10.20;99.90
20998;DHT22;10657;51.276;6.390;2023-04-15T07:46:58;10.30;99.90
20998;DHT22;10657;51.276;6.390;2023-04-15T07:49:25;10.80;99.90
20998;DHT22;10657;51.276;6.390;2023-04-15T07:51:52;10.90;99.90
20998;DHT22;10657;51.276;6.390;2023-04-15T07:54:19;10.70;99.90
20998;DHT22;10657;51.276;6.390;2023-04-15T07:56:46;10.70;99.90
20998;DHT22;10657;51.276;6.390;2023-04-15T07:59:14;10.60;99.90
20998;DHT22;10657;51.276;6.390;2023-04-15T08:01:43;10.60;99.90
20998;DHT22;10657;51.276;6.390;2023-04-15T08:04:10;10.40;99.90
20998;DHT22;10657;51.276;6.390;2023-04-15T08:06:37;10.50;99.90
20998;DHT22;10657;51.276;6.390;2023-04-15T08:09:05;10.60;99.90
20998;DHT22;10657;51.276;6.390;2023-04-15T08:11:32;10.50;99.90
20998;DHT22;10657;51.276;6.390;2023-04-15T08:13:59;10.30;99.90
20998;DHT22;10657;51.276;6.390;2023-04-15T08:16:26;10.50;99.90
20998;DHT22;10657;51.276;6.390;2023-04-15T08:18:54;10.70;99.90
20998;DHT22;10657;51.276;6.390;2023-04-15T08:21:21;10.70;99.90
20998;DHT22;10657;51.276;6.390;2023-04-15T08:23:50;10.70;99.90
20998;DHT22;10657;51.276;6.390;2023-04-15T08:26:19;10.80;99.90
20998;DHT22;10657;51.276;6.390;2023-04-15T08:28:46;10.90;99.90
20998;DHT22;10657;51.276;6.390;2023-04-15T08:31:14;11.00;99.90
20998;DHT22;10657;51.276;6.390;2023-04-15T08:33:41;11.20;99.90
20998;DHT22;10657;51.276;6.390;2023-04-15T08:36:08;11.00;99.90
20998;DHT22;10657;51.276;6.390;2023-04-15T08:38:35;10.90;99.90
20998;DHT22;10657;51.276;6.390;2023-04-15T08:41:06;10.70;99.90
20998;DHT22;10657;51.276;6.390;2023-04-15T08:43:34;10.80;99.90
20998;DHT22;10657;51.276;6.390;2023-04-15T08:46:01;10.90;99.90
20998;DHT22;10657;51.276;6.390;2023-04-15T08:48:32;11.00;99.90
20998;DHT22;10657;51.276;6.390;2023-04-15T08:51:00;11.00;99.90
20998;DHT22;10657;51.276;6.390;2023-04-15T08:53:28;11.10;99.90
20998;DHT22;10657;51.276;6.390;2023-04-15T08:55:57;11.10;99.90
20998;DHT22;10657;51.276;6.390;2023-04-15T08:58:25;11.10;99.90
20998;DHT22;10657;51.276;6.390;2023-04-15T09:00:52;11.20;99.90
20998;DHT22;10657;51.276;6.390;2023-04-15T09:03:19;11.20;99.90
20998;DHT22;10657;51.276;6.390;2023-04-15T09:05:47;11.20;99.90
20998;DHT22;10657;51.276;6.390;2023-04-15T09:08:14;11.60;99.90
20998;DHT22;10657;51.276;6.390;2023-04-15T09:10:41;12.00;99.90
20998;DHT22;10657;51.276;6.390;2023-04-15T09:13:07;12.20;99.90
20998;DHT22;10657;51.276;6.390;2023-04-15T09:15:37;12.20;99.90
20998;DHT22;10657;51.276;6.390;2023-04-15T09:18:05;12.10;99.90
20998;DHT22;10657;51.276;6.390;2023-04-15T09:20:39;12.10;99.90
20998;DHT22;10657;51.276;6.390;2023-04-15T09:23:14;11.90;99.90
20998;DHT22;10657;51.276;6.390;2023-04-15T09:25:41;12.00;99.90
20998;DHT22;10657;51.276;6.390;2023-04-15T09:28:08;12.10;99.90
20998;DHT22;10657;51.276;6.390;2023-04-15T09:30:36;11.90;99.90
20998;DHT22;10657;51.276;6.390;2023-04-15T09:33:03;12.00;99.90
20998;DHT22;10657;51.276;6.390;2023-04-15T09:35:34;12.10;99.90
20998;DHT22;10657;51.276;6.390;2023-04-15T09:38:04;12.10;99.90
20998;DHT22;10657;51.276;6.390;2023-04-15T09:40:36;12.00;99.90
20998;DHT22;10657;51.276;6.390;2023-04-15T09:43:03;12.30;99.90
20998;DHT22;10657;51.276;6.390;2023-04-15T09:45:31;12.10;99.90
20998;DHT22;10657;51.276;6.390;2023-04-15T09:48:13;12.50;99.90
20998;DHT22;10657;51.276;6.390;2023-04-15T09:50:41;12.50;99.90
20998;DHT22;10657;51.276;6.390;2023-04-15T09:53:15;12.40;99.90
20998;DHT22;10657;51.276;6.390;2023-04-15T09:55:51;12.40;99.90
20998;DHT22;10657;51.276;6.390;2023-04-15T09:58:38;12.30;99.90
20998;DHT22;10657;51.276;6.390;2023-04-15T10:01:07;12.30;99.90
20998;DHT22;10657;51.276;6.390;2023-04-15T10:03:34;12.40;99.90
20998;DHT22;10657;51.276;6.390;2023-04-15T10:06:04;12.40;99.90
20998;DHT22;10657;51.276;6.390;2023-04-15T10:08:33;12.30;99.90
20998;DHT22;10657;51.276;6.390;2023-04-15T10:11:01;12.40;99.90
20998;DHT22;10657;51.276;6.390;2023-04-15T10:13:31;12.50;99.90
20998;DHT22;10657;51.276;6.390;2023-04-15T10:16:11;12.40;99.90
20998;DHT22;10657;51.276;6.390;2023-04-15T10:18:45;12.50;99.90
20998;DHT22;10657;51.276;6.390;2023-04-15T10:21:13;12.60;99.90
20998;DHT22;10657;51.276;6.390;2023-04-15T10:23:47;12.50;99.90
20998;DHT22;10657;51.276;6.390;2023-04-15T10:26:14;12.40;99.90
20998;DHT22;10657;51.276;6.390;2023-04-15T10:28:43;12.40;99.90
20998;DHT22;10657;51.276;6.390;2023-04-15T10:31:11;12.60;99.90
20998;DHT22;10657;51.276;6.390;2023-04-15T10:33:41;12.50;99.90
20998;DHT22;10657;51.276;6.390;2023-04-15T10:36:09;12.60;99.90
20998;DHT22;10657;51.276;6.390;2023-04-15T10:38:40;12.70;99.90
20998;DHT22;10657;51.276;6.390;2023-04-15T10:41:13;12.70;99.90
20998;DHT22;10657;51.276;6.390;2023-04-15T10:46:35;12.90;99.90
20998;DHT22;10657;51.276;6.390;2023-04-15T10:49:16;12.90;99.90
20998;DHT22;10657;51.276;6.390;2023-04-15T10:51:52;13.00;99.90
20998;DHT22;10657;51.276;6.390;2023-04-15T10:59:35;12.70;99.90
20998;DHT22;10657;51.276;6.390;2023-04-15T11:02:04;12.70;99.90
20998;DHT22;10657;51.276;6.390;2023-04-15T11:04:50;12.60;99.90
20998;DHT22;10657;51.276;6.390;2023-04-15T11:12:39;13.50;99.90
20998;DHT22;10657;51.276;6.390;2023-04-15T11:17:58;13.50;99.90
20998;DHT22;10657;51.276;6.390;2023-04-15T11:20:25;13.20;99.90
20998;DHT22;10657;51.276;6.390;2023-04-15T11:22:53;13.10;99.90
20998;DHT22;10657;51.276;6.390;2023-04-15T11:25:40;12.80;99.90
20998;DHT22;10657;51.276;6.390;2023-04-15T11:28:07;12.80;99.90
20998;DHT22;10657;51.276;6.390;2023-04-15T11:30:35;12.90;99.90
20998;DHT22;10657;51.276;6.390;2023-04-15T11:33:07;12.80;99.90
20998;DHT22;10657;51.276;6.390;2023-04-15T11:35:35;13.20;99.90
20998;DHT22;10657;51.276;6.390;2023-04-15T11:38:03;13.50;99.90
20998;DHT22;10657;51.276;6.390;2023-04-15T11:40:30;13.50;99.90
20998;DHT22;10657;51.276;6.390;2023-04-15T11:43:11;13.30;99.90
20998;DHT22;10657;51.276;6.390;2023-04-15T11:49:00;13.50;99.90
20998;DHT22;10657;51.276;6.390;2023-04-15T11:51:31;13.40;99.90
20998;DHT22;10657;51.276;6.390;2023-04-15T11:53:58;13.40;99.90
20998;DHT22;10657;51.276;6.390;2023-04-15T11:56:26;13.20;99.90
20998;DHT22;10657;51.276;6.390;2023-04-15T11:58:55;13.30;99.90
20998;DHT22;10657;51.276;6.390;2023-04-15T12:01:31;13.60;99.90
20998;DHT22;10657;51.276;6.390;2023-04-15T12:03:58;13.50;99.90
20998;DHT22;10657;51.276;6.390;2023-04-15T12:06:31;13.60;99.90
20998;DHT22;10657;51.276;6.390;2023-04-15T12:09:12;13.60;99.90
20998;DHT22;10657;51.276;6.390;2023-04-15T12:11:44;13.60;99.90
20998;DHT22;10657;51.276;6.390;2023-04-15T12:14:25;13.60;99.90
20998;DHT22;10657;51.276;6.390;2023-04-15T12:16:58;13.70;99.90
20998;DHT22;10657;51.276;6.390;2023-04-15T12:19:36;13.50;99.90
20998;DHT22;10657;51.276;6.390;2023-04-15T12:22:11;13.40;99.90
20998;DHT22;10657;51.276;6.390;2023-04-15T12:24:38;13.60;99.90
20998;DHT22;10657;51.276;6.390;2023-04-15T12:27:15;13.50;99.90
20998;DHT22;10657;51.276;6.390;2023-04-15T12:29:42;13.30;99.90
20998;DHT22;10657;51.276;6.390;2023-04-15T12:32:14;13.10;99.90
20998;DHT22;10657;51.276;6.390;2023-04-15T12:34:47;13.20;99.90
20998;DHT22;10657;51.276;6.390;2023-04-15T12:37:15;13.20;99.90
20998;DHT22;10657;51.276;6.390;2023-04-15T12:39:43;13.80;99.90
20998;DHT22;10657;51.276;6.390;2023-04-15T12:42:11;14.10;99.90
20998;DHT22;10657;51.276;6.390;2023-04-15T12:44:38;13.90;99.90
20998;DHT22;10657;51.276;6.390;2023-04-15T12:47:06;13.80;99.90
20998;DHT22;10657;51.276;6.390;2023-04-15T12:49:33;13.70;99.90
20998;DHT22;10657;51.276;6.390;2023-04-15T12:52:01;13.60;99.90
20998;DHT22;10657;51.276;6.390;2023-04-15T12:54:29;13.30;99.90
20998;DHT22;10657;51.276;6.390;2023-04-15T12:56:56;12.90;99.90
20998;DHT22;10657;51.276;6.390;2023-04-15T12:59:23;12.70;99.90
20998;DHT22;10657;51.276;6.390;2023-04-15T13:01:50;12.70;99.90
20998;DHT22;10657;51.276;6.390;2023-04-15T13:04:19;12.50;99.90
20998;DHT22;10657;51.276;6.390;2023-04-15T13:06:46;12.50;99.90
20998;DHT22;10657;51.276;6.390;2023-04-15T13:09:13;12.60;99.90
20998;DHT22;10657;51.276;6.390;2023-04-15T13:11:40;12.60;99.90
20998;DHT22;10657;51.276;6.390;2023-04-15T13:14:08;12.60;99.90
20998;DHT22;10657;51.276;6.390;2023-04-15T13:16:36;12.70;99.90
20998;DHT22;10657;51.276;6.390;2023-04-15T13:19:03;12.60;99.90
20998;DHT22;10657;51.276;6.390;2023-04-15T13:21:31;12.60;99.90
20998;DHT22;10657;51.276;6.390;2023-04-15T13:24:01;12.60;99.90
20998;DHT22;10657;51.276;6.390;2023-04-15T13:26:28;12.70;99.90
20998;DHT22;10657;51.276;6.390;2023-04-15T13:28:55;12.70;99.90
20998;DHT22;10657;51.276;6.390;2023-04-15T13:31:22;13.00;99.90
20998;DHT22;10657;51.276;6.390;2023-04-15T13:33:48;13.10;99.90
20998;DHT22;10657;51.276;6.390;2023-04-15T13:36:15;12.90;99.90
20998;DHT22;10657;51.276;6.390;2023-04-15T13:38:42;13.00;99.90
20998;DHT22;10657;51.276;6.390;2023-04-15T13:41:08;12.90;99.90
20998;DHT22;10657;51.276;6.390;2023-04-15T13:43:35;13.00;99.90
20998;DHT22;10657;51.276;6.390;2023-04-15T13:46:02;13.10;99.90
20998;DHT22;10657;51.276;6.390;2023-04-15T13:48:28;12.90;99.90
20998;DHT22;10657;51.276;6.390;2023-04-15T13:50:55;12.70;99.90
20998;DHT22;10657;51.276;6.390;2023-04-15T13:53:22;12.60;99.90
20998;DHT22;10657;51.276;6.390;2023-04-15T13:56:06;12.60;99.90
20998;DHT22;10657;51.276;6.390;2023-04-15T13:58:32;12.60;99.90
20998;DHT22;10657;51.276;6.390;2023-04-15T14:00:59;12.60;99.90
20998;DHT22;10657;51.276;6.390;2023-04-15T14:03:27;12.50;99.90
20998;DHT22;10657;51.276;6.390;2023-04-15T14:05:54;12.60;99.90
20998;DHT22;10657;51.276;6.390;2023-04-15T14:08:23;12.60;99.90
20998;DHT22;10657;51.276;6.390;2023-04-15T14:10:50;12.60;99.90
20998;DHT22;10657;51.276;6.390;2023-04-15T14:13:16;12.70;99.90
20998;DHT22;10657;51.276;6.390;2023-04-15T14:15:46;12.50;99.90
20998;DHT22;10657;51.276;6.390;2023-04-15T14:18:13;12.40;99.90
20998;DHT22;10657;51.276;6.390;2023-04-15T14:20:39;12.60;99.90
20998;DHT22;10657;51.276;6.390;2023-04-15T14:23:06;12.50;99.90
20998;DHT22;10657;51.276;6.390;2023-04-15T14:25:33;12.40;99.90
20998;DHT22;10657;51.276;6.390;2023-04-15T14:28:00;12.30;99.90
20998;DHT22;10657;51.276;6.390;2023-04-15T14:30:27;12.30;99.90
20998;DHT22;10657;51.276;6.390;2023-04-15T14:32:54;12.30;99.90
20998;DHT22;10657;51.276;6.390;2023-04-15T14:35:21;12.30;99.90
20998;DHT22;10657;51.276;6.390;2023-04-15T14:37:47;12.50;99.90
20998;DHT22;10657;51.276;6.390;2023-04-15T14:40:14;12.60;99.90
20998;DHT22;10657;51.276;6.390;2023-04-15T14:42:40;12.50;99.90
20998;DHT22;10657;51.276;6.390;2023-04-15T14:45:08;12.40;99.90
20998;DHT22;10657;51.276;6.390;2023-04-15T14:47:34;12.50;99.90
20998;DHT22;10657;51.276;6.390;2023-04-15T14:50:01;12.40;99.90
20998;DHT22;10657;51.276;6.390;2023-04-15T14:52:32;12.50;99.90
20998;DHT22;10657;51.276;6.390;2023-04-15T14:55:06;12.50;99.90
20998;DHT22;10657;51.276;6.390;2023-04-15T14:57:33;12.40;99.90
20998;DHT22;10657;51.276;6.390;2023-04-15T14:59:59;12.40;99.90
20998;DHT22;10657;51.276;6.390;2023-04-15T15:02:27;12.40;99.90
20998;DHT22;10657;51.276;6.390;2023-04-15T15:05:05;12.50;99.90
20998;DHT22;10657;51.276;6.390;2023-04-15T15:07:32;12.50;99.90
20998;DHT22;10657;51.276;6.390;2023-04-15T15:09:59;12.60;99.90
20998;DHT22;10657;51.276;6.390;2023-04-15T15:12:25;12.80;99.90
20998;DHT22;10657;51.276;6.390;2023-04-15T15:14:54;12.90;99.90
20998;DHT22;10657;51.276;6.390;2023-04-15T15:17:21;13.10;99.90
20998;DHT22;10657;51.276;6.390;2023-04-15T15:19:47;13.30;99.90
20998;DHT22;10657;51.276;6.390;2023-04-15T15:22:14;13.20;99.90
20998;DHT22;10657;51.276;6.390;2023-04-15T15:24:41;13.10;99.90
20998;DHT22;10657;51.276;6.390;2023-04-15T15:27:07;13.00;99.90
20998;DHT22;10657;51.276;6.390;2023-04-15T15:29:34;12.90;99.90
20998;DHT22;10657;51.276;6.390;2023-04-15T15:32:01;12.90;99.90
20998;DHT22;10657;51.276;6.390;2023-04-15T15:34:27;13.00;99.90
20998;DHT22;10657;51.276;6.390;2023-04-15T15:36:54;13.10;99.90
20998;DHT22;10657;51.276;6.390;2023-04-15T15:39:22;13.10;99.90
20998;DHT22;10657;51.276;6.390;2023-04-15T15:41:49;13.00;99.90
20998;DHT22;10657;51.276;6.390;2023-04-15T15:44:16;13.00;99.90
20998;DHT22;10657;51.276;6.390;2023-04-15T15:46:42;12.90;99.90
20998;DHT22;10657;51.276;6.390;2023-04-15T15:49:10;13.10;99.90
20998;DHT22;10657;51.276;6.390;2023-04-15T15:51:36;12.90;99.90
20998;DHT22;10657;51.276;6.390;2023-04-15T15:54:03;13.00;99.90
20998;DHT22;10657;51.276;6.390;2023-04-15T15:56:30;13.00;99.90
20998;DHT22;10657;51.276;6.390;2023-04-15T15:58:56;13.10;99.90
20998;DHT22;10657;51.276;6.390;2023-04-15T16:01:23;13.10;99.90